Urb Toa Alta Hts, Puerto Rico
Current Conditions -  °F | °C
As of 5:56 AM on Sunday 23 Nov 2014 (Local Time) from TJSJ Reporting Station
Few Clouds Few Clouds  
Wind Chill: 75°   Ceiling: Unl
Heat Index: 75°   Visibility: 10mi
Dew Point: 74°   Wind: 3mph
Humidity: 96%   Direction: 130°SE
Pressure: 29.98"   Gusts: NA
Location:  18.3893°N, 66.2481°W
Report Text: TJSJ 230956Z 13003KT 10SM FEW033 24/23 A2998 RMK AO2 SLP150 T02390233 $
Loading
Personal Weather Stations






























Interactive Weather Map New forecast layout! Learn more

10-Day Weather Forecast

Advertisements
Track Severe Weather on mobile